createdAt,value
2022-12-25T00:00:04.412Z,0.28
2022-12-25T00:00:20.768Z,0.28
2022-12-25T00:00:27.426Z,0.26
2022-12-25T00:00:37.410Z,0.28
2022-12-25T00:00:48.405Z,0.28
2022-12-25T00:00:59.429Z,0.28
2022-12-25T00:01:10.481Z,0.28
2022-12-25T00:01:21.366Z,0.29
2022-12-25T00:01:32.370Z,0.29
2022-12-25T00:01:43.347Z,0.31
2022-12-25T00:01:54.355Z,0.32
2022-12-25T00:02:05.350Z,0.29
2022-12-25T00:02:16.464Z,0.29
2022-12-25T00:02:27.507Z,0.31
2022-12-25T00:02:38.515Z,0.31
2022-12-25T00:02:49.570Z,0.31
2022-12-25T00:03:00.581Z,0.32
2022-12-25T00:03:11.567Z,0.32
2022-12-25T00:03:22.525Z,0.32
2022-12-25T00:03:33.559Z,0.33
2022-12-25T00:03:44.529Z,0.33
2022-12-25T00:03:55.440Z,0.36
2022-12-25T00:04:06.434Z,0.35
2022-12-25T00:04:17.387Z,0.35
2022-12-25T00:04:28.398Z,0.35
2022-12-25T00:04:39.379Z,0.38
2022-12-25T00:04:50.408Z,0.36
2022-12-25T00:05:01.384Z,0.36
2022-12-25T00:05:12.406Z,0.38
2022-12-25T00:05:23.397Z,0.38
2022-12-25T00:05:34.396Z,0.36
2022-12-25T00:05:45.410Z,0.39
2022-12-25T00:05:56.414Z,0.38
2022-12-25T00:06:07.394Z,0.39
2022-12-25T00:06:18.415Z,0.36
2022-12-25T00:06:29.395Z,0.38
2022-12-25T00:06:40.393Z,0.39
2022-12-25T00:06:51.466Z,0.38
2022-12-25T00:07:02.395Z,0.36
2022-12-25T00:07:13.406Z,0.36
2022-12-25T00:07:24.432Z,0.38
2022-12-25T00:07:35.395Z,0.38
2022-12-25T00:07:46.401Z,0.38
2022-12-25T00:07:57.396Z,0.38
2022-12-25T00:08:08.391Z,0.38
2022-12-25T00:08:19.402Z,0.41
2022-12-25T00:08:30.416Z,0.41
2022-12-25T00:08:41.417Z,0.39
2022-12-25T00:08:52.394Z,0.39
2022-12-25T00:09:03.397Z,0.39
2022-12-25T00:09:14.415Z,0.41
2022-12-25T00:09:25.407Z,0.41
2022-12-25T00:09:36.417Z,0.41
2022-12-25T00:09:47.411Z,0.41
2022-12-25T00:09:58.398Z,0.39
2022-12-25T00:10:09.398Z,0.41
2022-12-25T00:10:20.400Z,0.41
2022-12-25T00:10:31.403Z,0.41
2022-12-25T00:10:45.193Z,0.39
2022-12-25T00:10:53.406Z,0.41
2022-12-25T00:11:04.410Z,0.39
2022-12-25T00:11:15.405Z,0.38
2022-12-25T00:11:26.419Z,0.39
2022-12-25T00:11:37.424Z,0.39
2022-12-25T00:11:48.406Z,0.39
2022-12-25T00:11:59.462Z,0.41
2022-12-25T00:12:10.425Z,0.41
2022-12-25T00:12:21.409Z,0.42
2022-12-25T00:12:32.410Z,0.44
2022-12-25T00:12:43.417Z,0.42
2022-12-25T00:12:54.436Z,0.44
2022-12-25T00:13:05.414Z,0.44
2022-12-25T00:13:16.417Z,0.42
2022-12-25T00:13:27.421Z,0.42
2022-12-25T00:13:38.421Z,0.42
2022-12-25T00:13:49.415Z,0.42
2022-12-25T00:14:00.424Z,0.42
2022-12-25T00:14:11.447Z,0.44
2022-12-25T00:14:22.429Z,0.42
2022-12-25T00:14:33.428Z,0.46
2022-12-25T00:14:44.433Z,0.44
2022-12-25T00:14:55.432Z,0.44
2022-12-25T00:15:06.437Z,0.46
2022-12-25T00:15:17.437Z,0.42
2022-12-25T00:15:28.440Z,0.44
2022-12-25T00:15:39.442Z,0.46
2022-12-25T00:15:50.485Z,0.46
2022-12-25T00:16:01.499Z,0.46
2022-12-25T00:16:12.557Z,0.47
2022-12-25T00:16:23.618Z,0.47
2022-12-25T00:16:34.542Z,0.47
2022-12-25T00:16:45.550Z,0.46
2022-12-25T00:16:56.461Z,0.47
2022-12-25T00:17:07.486Z,0.46
2022-12-25T00:17:18.480Z,0.44
2022-12-25T00:17:29.458Z,0.47
2022-12-25T00:17:40.476Z,0.46
2022-12-25T00:17:51.465Z,0.44
2022-12-25T00:18:02.465Z,0.47
2022-12-25T00:18:13.470Z,0.47
2022-12-25T00:18:24.480Z,0.44
2022-12-25T00:18:35.470Z,0.44
2022-12-25T00:18:46.531Z,0.44
2022-12-25T00:18:57.468Z,0.44
2022-12-25T00:19:08.475Z,0.46
2022-12-25T00:19:19.471Z,0.44
2022-12-25T00:19:30.485Z,0.42
2022-12-25T00:19:41.488Z,0.42
2022-12-25T00:19:52.473Z,0.44
2022-12-25T00:20:03.478Z,0.41
2022-12-25T00:20:14.474Z,0.42
2022-12-25T00:20:25.478Z,0.44
2022-12-25T00:20:36.496Z,0.41
2022-12-25T00:20:47.505Z,0.42
2022-12-25T00:20:58.484Z,0.42
2022-12-25T00:21:09.478Z,0.42
2022-12-25T00:21:20.492Z,0.42
2022-12-25T00:21:31.488Z,0.42
2022-12-25T00:21:42.498Z,0.41
2022-12-25T00:21:53.484Z,0.41
2022-12-25T00:22:04.492Z,0.41
2022-12-25T00:22:15.507Z,0.41
2022-12-25T00:22:26.528Z,0.38
2022-12-25T00:22:37.512Z,0.39
2022-12-25T00:22:48.509Z,0.39
2022-12-25T00:22:59.508Z,0.39
2022-12-25T00:23:10.501Z,0.39
2022-12-25T00:23:21.505Z,0.41
2022-12-25T00:23:32.520Z,0.41
2022-12-25T00:23:43.510Z,0.41
2022-12-25T00:23:54.569Z,0.41
2022-12-25T00:24:05.538Z,0.41
2022-12-25T00:24:16.531Z,0.36
2022-12-25T00:24:27.531Z,0.39
2022-12-25T00:24:38.529Z,0.36
2022-12-25T00:24:49.547Z,0.41
2022-12-25T00:25:00.552Z,0.39
2022-12-25T00:25:11.547Z,0.38
2022-12-25T00:25:22.551Z,0.39
2022-12-25T00:25:33.531Z,0.39
2022-12-25T00:25:44.545Z,0.39
2022-12-25T00:25:55.542Z,0.39
2022-12-25T00:26:06.555Z,0.36
2022-12-25T00:26:17.674Z,0.38
2022-12-25T00:26:28.539Z,0.38
2022-12-25T00:26:39.543Z,0.39
2022-12-25T00:26:50.575Z,0.38
2022-12-25T00:27:01.559Z,0.36
2022-12-25T00:27:12.547Z,0.36
2022-12-25T00:27:23.551Z,0.38
2022-12-25T00:27:34.548Z,0.36
2022-12-25T00:27:45.548Z,0.39
2022-12-25T00:27:56.550Z,0.38
2022-12-25T00:28:07.556Z,0.36
2022-12-25T00:28:18.546Z,0.36
2022-12-25T00:28:29.561Z,0.36
2022-12-25T00:28:40.542Z,0.38
2022-12-25T00:28:51.549Z,0.36
2022-12-25T00:29:02.585Z,0.38
2022-12-25T00:29:13.551Z,0.35
2022-12-25T00:29:24.573Z,0.36
2022-12-25T00:29:35.602Z,0.36
2022-12-25T00:29:46.555Z,0.36
2022-12-25T00:29:57.554Z,0.35
2022-12-25T00:30:08.561Z,0.36
2022-12-25T00:30:19.572Z,0.36
2022-12-25T00:30:30.573Z,0.33
2022-12-25T00:30:41.570Z,0.35
2022-12-25T00:30:52.574Z,0.33
2022-12-25T00:31:03.612Z,0.31
2022-12-25T00:31:14.757Z,0.31
2022-12-25T00:31:25.728Z,0.32
2022-12-25T00:31:36.650Z,0.33
2022-12-25T00:31:47.679Z,0.31
2022-12-25T00:31:58.667Z,0.32
2022-12-25T00:32:09.579Z,0.31
2022-12-25T00:32:20.589Z,0.31
2022-12-25T00:32:31.578Z,0.32
2022-12-25T00:32:42.615Z,0.32
2022-12-25T00:32:53.587Z,0.31
2022-12-25T00:33:04.584Z,0.32
2022-12-25T00:33:15.586Z,0.31
2022-12-25T00:33:26.589Z,0.31
2022-12-25T00:33:37.594Z,0.29
2022-12-25T00:33:48.590Z,0.31
2022-12-25T00:33:59.591Z,0.28
2022-12-25T00:34:10.597Z,0.31
2022-12-25T00:34:21.594Z,0.29
2022-12-25T00:34:32.609Z,0.29
2022-12-25T00:34:43.592Z,0.31
2022-12-25T00:34:54.608Z,0.31
2022-12-25T00:35:05.631Z,0.29
2022-12-25T00:35:16.603Z,0.29
2022-12-25T00:35:27.615Z,0.29
2022-12-25T00:35:38.612Z,0.29
2022-12-25T00:35:49.620Z,0.28
2022-12-25T00:36:00.631Z,0.28
2022-12-25T00:36:11.612Z,0.28
2022-12-25T00:36:22.617Z,0.29
2022-12-25T00:36:37.861Z,0.26
2022-12-25T00:36:45.614Z,0.29
2022-12-25T00:36:55.606Z,0.28
2022-12-25T00:37:06.628Z,0.24
2022-12-25T00:37:17.621Z,0.26
2022-12-25T00:37:28.609Z,0.26
2022-12-25T00:37:39.634Z,0.28
2022-12-25T00:37:50.614Z,0.28
2022-12-25T00:38:01.672Z,0.26
2022-12-25T00:38:12.616Z,0.26
2022-12-25T00:38:23.621Z,0.24
2022-12-25T00:38:34.615Z,0.24
2022-12-25T00:38:45.618Z,0.26
2022-12-25T00:38:56.622Z,0.26
2022-12-25T00:39:07.623Z,0.24
2022-12-25T00:39:18.617Z,0.24
2022-12-25T00:39:29.621Z,0.21
2022-12-25T00:39:40.623Z,0.23
2022-12-25T00:39:51.660Z,0.23
2022-12-25T00:40:02.649Z,0.24
2022-12-25T00:40:13.630Z,0.23
2022-12-25T00:40:24.625Z,0.23
2022-12-25T00:40:35.630Z,0.21
2022-12-25T00:40:46.628Z,0.23
2022-12-25T00:40:57.641Z,0.24
2022-12-25T00:41:08.628Z,0.24
2022-12-25T00:41:19.626Z,0.24
2022-12-25T00:41:30.628Z,0.23
2022-12-25T00:41:41.636Z,0.24
2022-12-25T00:41:52.625Z,0.26
2022-12-25T00:42:03.638Z,0.24
2022-12-25T00:42:14.630Z,0.26
2022-12-25T00:42:25.633Z,0.28
2022-12-25T00:42:36.636Z,0.28
2022-12-25T00:42:47.633Z,0.24
2022-12-25T00:42:58.640Z,0.28
2022-12-25T00:43:09.628Z,0.24
2022-12-25T00:43:20.633Z,0.24
2022-12-25T00:43:31.643Z,0.26
2022-12-25T00:43:42.633Z,0.28
2022-12-25T00:43:53.634Z,0.26
2022-12-25T00:44:04.633Z,0.28
2022-12-25T00:44:15.635Z,0.26
2022-12-25T00:44:26.662Z,0.28
2022-12-25T00:44:37.642Z,0.26
2022-12-25T00:44:48.645Z,0.24
2022-12-25T00:44:59.639Z,0.24
2022-12-25T00:45:10.634Z,0.26
2022-12-25T00:45:21.711Z,0.26
2022-12-25T00:45:32.664Z,0.24
2022-12-25T00:45:43.714Z,0.24
2022-12-25T00:45:54.696Z,0.24
2022-12-25T00:46:05.700Z,0.23
2022-12-25T00:46:16.783Z,0.24
2022-12-25T00:46:27.738Z,0.23
2022-12-25T00:46:38.744Z,0.23
2022-12-25T00:46:49.757Z,0.21
2022-12-25T00:47:00.705Z,0.23
2022-12-25T00:47:11.758Z,0.23
2022-12-25T00:47:22.759Z,0.21
2022-12-25T00:47:33.667Z,0.21
2022-12-25T00:47:44.663Z,0.21
2022-12-25T00:47:55.676Z,0.23
2022-12-25T00:48:06.706Z,0.23
2022-12-25T00:48:17.671Z,0.23
2022-12-25T00:48:28.672Z,0.21
2022-12-25T00:48:39.699Z,0.21
2022-12-25T00:48:50.690Z,0.20
2022-12-25T00:49:01.678Z,0.20
2022-12-25T00:49:12.680Z,0.20
2022-12-25T00:49:23.708Z,0.21
2022-12-25T00:49:34.711Z,0.20
2022-12-25T00:49:45.692Z,0.20
2022-12-25T00:49:56.697Z,0.20
2022-12-25T00:50:07.705Z,0.17
2022-12-25T00:50:18.693Z,0.18
2022-12-25T00:50:29.700Z,0.17
2022-12-25T00:50:40.705Z,0.17
2022-12-25T00:50:51.702Z,0.18
2022-12-25T00:51:02.720Z,0.18
2022-12-25T00:51:13.696Z,0.18
2022-12-25T00:51:24.716Z,0.17
2022-12-25T00:51:35.709Z,0.18
2022-12-25T00:51:46.703Z,0.20
2022-12-25T00:51:57.705Z,0.17
2022-12-25T00:52:08.703Z,0.18
2022-12-25T00:52:19.702Z,0.17
2022-12-25T00:52:30.730Z,0.17
2022-12-25T00:52:41.706Z,0.15
2022-12-25T00:52:52.728Z,0.18
2022-12-25T00:53:03.746Z,0.17
2022-12-25T00:53:14.710Z,0.18
2022-12-25T00:53:25.713Z,0.17
2022-12-25T00:53:36.714Z,0.15
2022-12-25T00:53:47.712Z,0.15
2022-12-25T00:53:58.723Z,0.15
2022-12-25T00:54:09.710Z,0.15
2022-12-25T00:54:20.743Z,0.15
2022-12-25T00:54:31.728Z,0.15
2022-12-25T00:54:42.724Z,0.15
2022-12-25T00:54:53.725Z,0.17
2022-12-25T00:55:04.727Z,0.15
2022-12-25T00:55:15.713Z,0.14
2022-12-25T00:55:26.769Z,0.15
2022-12-25T00:55:37.721Z,0.14
2022-12-25T00:55:48.714Z,0.15
2022-12-25T00:55:59.719Z,0.15
2022-12-25T00:56:10.755Z,0.15
2022-12-25T00:56:21.740Z,0.13
2022-12-25T00:56:32.726Z,0.17
2022-12-25T00:56:43.732Z,0.14
2022-12-25T00:56:54.728Z,0.14
2022-12-25T00:57:05.737Z,0.14
2022-12-25T00:57:16.737Z,0.13
2022-12-25T00:57:27.734Z,0.13
2022-12-25T00:57:38.733Z,0.13
2022-12-25T00:57:49.748Z,0.13
2022-12-25T00:58:00.736Z,0.13
2022-12-25T00:58:11.741Z,0.14
2022-12-25T00:58:22.748Z,0.14
2022-12-25T00:58:33.750Z,0.14
2022-12-25T00:58:44.756Z,0.13
2022-12-25T00:58:55.767Z,0.15
2022-12-25T00:59:06.741Z,0.14
2022-12-25T00:59:17.753Z,0.14
2022-12-25T00:59:28.745Z,0.13
2022-12-25T00:59:39.743Z,0.13
2022-12-25T00:59:50.743Z,0.15
2022-12-25T01:00:01.758Z,0.14
2022-12-25T01:00:12.753Z,0.14
2022-12-25T01:00:23.742Z,0.13
2022-12-25T01:00:34.823Z,0.13
2022-12-25T01:00:45.769Z,0.15
2022-12-25T01:00:56.812Z,0.13
2022-12-25T01:01:07.827Z,0.14
2022-12-25T01:01:18.895Z,0.14
2022-12-25T01:01:29.958Z,0.11
2022-12-25T01:01:40.990Z,0.13
2022-12-25T01:01:51.949Z,0.13
2022-12-25T01:02:02.808Z,0.14
2022-12-25T01:02:13.926Z,0.14
2022-12-25T01:02:25.117Z,0.14
2022-12-25T01:02:35.937Z,0.13
2022-12-25T01:02:46.933Z,0.13
2022-12-25T01:02:57.906Z,0.13
2022-12-25T01:03:08.803Z,0.13
2022-12-25T01:03:19.796Z,0.13
2022-12-25T01:03:30.744Z,0.13
2022-12-25T01:03:41.784Z,0.13
2022-12-25T01:03:52.778Z,0.11
2022-12-25T01:04:03.742Z,0.11
2022-12-25T01:04:14.747Z,0.13
2022-12-25T01:04:25.753Z,0.13
2022-12-25T01:04:36.745Z,0.13
2022-12-25T01:04:47.776Z,0.13
2022-12-25T01:04:58.756Z,0.13
2022-12-25T01:05:09.748Z,0.11
2022-12-25T01:05:20.765Z,0.14
2022-12-25T01:05:31.754Z,0.14
2022-12-25T01:05:42.758Z,0.14
2022-12-25T01:05:53.753Z,0.13
2022-12-25T01:06:04.756Z,0.14
2022-12-25T01:06:15.763Z,0.14
2022-12-25T01:06:26.756Z,0.14
2022-12-25T01:06:37.756Z,0.14
2022-12-25T01:06:48.756Z,0.13
2022-12-25T01:06:59.761Z,0.14
2022-12-25T01:07:10.767Z,0.13
2022-12-25T01:07:21.778Z,0.13
2022-12-25T01:07:32.790Z,0.11
2022-12-25T01:07:43.752Z,0.13
2022-12-25T01:07:54.775Z,0.11
2022-12-25T01:08:05.755Z,0.11
2022-12-25T01:08:16.753Z,0.11
2022-12-25T01:08:27.757Z,0.13
2022-12-25T01:08:38.772Z,0.11
2022-12-25T01:08:49.782Z,0.11
2022-12-25T01:09:00.768Z,0.13
2022-12-25T01:09:11.755Z,0.13
2022-12-25T01:09:22.760Z,0.13
2022-12-25T01:09:33.773Z,0.13
2022-12-25T01:09:44.756Z,0.13
2022-12-25T01:09:55.759Z,0.13
2022-12-25T01:10:06.781Z,0.11
2022-12-25T01:10:17.762Z,0.13
2022-12-25T01:10:28.760Z,0.11
2022-12-25T01:10:39.791Z,0.13
2022-12-25T01:10:50.758Z,0.13
2022-12-25T01:11:01.765Z,0.13
2022-12-25T01:11:12.775Z,0.11
2022-12-25T01:11:23.778Z,0.11
2022-12-25T01:11:34.767Z,0.13
2022-12-25T01:11:45.770Z,0.11
2022-12-25T01:11:56.777Z,0.13
2022-12-25T01:12:07.787Z,0.13
2022-12-25T01:12:18.773Z,0.13
2022-12-25T01:12:29.777Z,0.11
2022-12-25T01:12:40.810Z,0.13
2022-12-25T01:12:51.777Z,0.13
2022-12-25T01:13:02.771Z,0.13
2022-12-25T01:13:13.768Z,0.13
2022-12-25T01:13:24.773Z,0.11
2022-12-25T01:13:35.800Z,0.13
2022-12-25T01:13:46.769Z,0.11
2022-12-25T01:13:57.766Z,0.10
2022-12-25T01:14:08.772Z,0.13
2022-12-25T01:14:19.781Z,0.11
2022-12-25T01:14:30.776Z,0.10
2022-12-25T01:14:41.778Z,0.10
2022-12-25T01:14:52.774Z,0.08
2022-12-25T01:15:03.773Z,0.10
2022-12-25T01:15:14.775Z,0.10
2022-12-25T01:15:25.776Z,0.07
2022-12-25T01:15:36.768Z,0.10
2022-12-25T01:15:47.773Z,0.07
2022-12-25T01:15:58.830Z,0.07
2022-12-25T01:16:09.861Z,0.04
2022-12-25T01:16:20.856Z,0.08
2022-12-25T01:16:31.877Z,0.07
2022-12-25T01:16:42.866Z,0.08
2022-12-25T01:16:53.817Z,0.07
2022-12-25T01:17:04.782Z,0.04
2022-12-25T01:17:15.792Z,0.07
2022-12-25T01:17:26.785Z,0.07
2022-12-25T01:17:37.837Z,0.07
2022-12-25T01:17:48.791Z,0.07
2022-12-25T01:18:02.734Z,0.08
2022-12-25T01:18:13.081Z,0.04
2022-12-25T01:18:21.817Z,0.07
2022-12-25T01:18:32.803Z,0.07
2022-12-25T01:18:43.796Z,0.07
2022-12-25T01:18:54.806Z,0.07
2022-12-25T01:19:05.812Z,0.04
2022-12-25T01:19:16.825Z,0.04
2022-12-25T01:19:27.811Z,0.04
2022-12-25T01:19:38.810Z,0.07
2022-12-25T01:19:49.825Z,0.04
2022-12-25T01:20:00.850Z,0.07
2022-12-25T01:20:11.813Z,0.02
2022-12-25T01:20:22.817Z,0.03
2022-12-25T01:20:33.820Z,0.03
2022-12-25T01:20:44.839Z,0.04
2022-12-25T01:20:55.822Z,0.04
2022-12-25T01:21:06.837Z,0.03
2022-12-25T01:21:17.830Z,0.04
2022-12-25T01:21:28.823Z,0.03
2022-12-25T01:21:39.826Z,0.02
2022-12-25T01:21:50.830Z,0.02
2022-12-25T01:22:01.841Z,0.00
2022-12-25T01:22:12.832Z,0.02
2022-12-25T01:22:23.831Z,0.02
2022-12-25T01:22:34.836Z,0.02
2022-12-25T01:22:45.872Z,0.00
2022-12-25T01:22:56.850Z,0.00
2022-12-25T01:23:07.831Z,0.00
2022-12-25T01:23:18.828Z,0.02
2022-12-25T01:23:29.841Z,0.02
2022-12-25T01:23:40.836Z,0.02
2022-12-25T01:23:51.838Z,0.02
2022-12-25T01:24:02.844Z,0.02
2022-12-25T01:24:13.846Z,0.04
2022-12-25T01:24:24.851Z,0.02
2022-12-25T01:24:35.915Z,0.02
2022-12-25T01:24:46.854Z,0.03
2022-12-25T01:24:57.859Z,0.03
2022-12-25T01:25:08.858Z,0.04
2022-12-25T01:25:19.868Z,0.04
2022-12-25T01:25:30.876Z,0.03
2022-12-25T01:25:41.863Z,0.04
2022-12-25T01:25:52.873Z,0.04
2022-12-25T01:26:03.871Z,0.04
2022-12-25T01:26:14.877Z,0.04
2022-12-25T01:26:25.873Z,0.07
2022-12-25T01:26:36.910Z,0.03
2022-12-25T01:26:47.894Z,0.03
2022-12-25T01:26:58.902Z,0.04
2022-12-25T01:27:09.889Z,0.02
2022-12-25T01:27:20.914Z,0.02
2022-12-25T01:27:31.906Z,0.02
2022-12-25T01:27:42.908Z,0.02
2022-12-25T01:27:53.904Z,0.02
2022-12-25T01:28:04.898Z,0.02
2022-12-25T01:28:15.910Z,0.02
2022-12-25T01:28:26.892Z,0.02
2022-12-25T01:28:37.903Z,0.02
2022-12-25T01:28:48.899Z,-0.01
2022-12-25T01:28:59.895Z,0.02
2022-12-25T01:29:10.900Z,0.02
2022-12-25T01:29:21.906Z,0.02
2022-12-25T01:29:32.943Z,0.00
2022-12-25T01:29:43.901Z,-0.01
2022-12-25T01:29:54.955Z,-0.01
2022-12-25T01:30:05.898Z,-0.03
2022-12-25T01:30:16.925Z,-0.01
2022-12-25T01:30:27.906Z,0.00
2022-12-25T01:30:38.918Z,0.00
2022-12-25T01:30:49.924Z,0.03
2022-12-25T01:31:00.942Z,0.02
2022-12-25T01:31:11.940Z,0.03
2022-12-25T01:31:23.031Z,0.02
2022-12-25T01:31:33.958Z,0.02
2022-12-25T01:31:44.970Z,0.02
2022-12-25T01:31:55.968Z,0.03
2022-12-25T01:32:06.991Z,0.03
2022-12-25T01:32:17.923Z,0.02
2022-12-25T01:32:28.932Z,0.02
2022-12-25T01:32:39.947Z,0.02
2022-12-25T01:32:50.941Z,0.02
2022-12-25T01:33:01.938Z,0.00
2022-12-25T01:33:12.962Z,0.03
2022-12-25T01:33:23.941Z,0.03
2022-12-25T01:33:34.938Z,0.02
2022-12-25T01:33:45.952Z,0.03
2022-12-25T01:33:56.958Z,0.03
2022-12-25T01:34:07.948Z,0.03
2022-12-25T01:34:18.953Z,0.03
2022-12-25T01:34:29.944Z,0.03
2022-12-25T01:34:40.952Z,0.03
2022-12-25T01:34:55.880Z,0.02
2022-12-25T01:35:02.946Z,0.03
2022-12-25T01:35:13.947Z,0.03
2022-12-25T01:35:24.950Z,0.04
2022-12-25T01:35:35.945Z,0.03
2022-12-25T01:35:46.951Z,0.04
2022-12-25T01:35:57.941Z,0.04
2022-12-25T01:36:09.002Z,0.07
2022-12-25T01:36:19.968Z,0.07
2022-12-25T01:36:30.950Z,0.04
2022-12-25T01:36:41.942Z,0.07
2022-12-25T01:36:52.959Z,0.07
2022-12-25T01:37:03.954Z,0.07
2022-12-25T01:37:14.946Z,0.07
2022-12-25T01:37:25.964Z,0.08
2022-12-25T01:37:36.949Z,0.08
2022-12-25T01:37:47.957Z,0.08
2022-12-25T01:37:58.982Z,0.07
2022-12-25T01:38:09.952Z,0.08
2022-12-25T01:38:20.954Z,0.04
2022-12-25T01:38:31.967Z,0.07
2022-12-25T01:38:42.953Z,0.07
2022-12-25T01:38:53.958Z,0.10
2022-12-25T01:39:04.956Z,0.07
2022-12-25T01:39:15.954Z,0.10
2022-12-25T01:39:26.955Z,0.08
2022-12-25T01:39:37.952Z,0.08
2022-12-25T01:39:48.954Z,0.10
2022-12-25T01:39:59.978Z,0.11
2022-12-25T01:40:10.951Z,0.11
2022-12-25T01:40:21.952Z,0.10
2022-12-25T01:40:32.959Z,0.13
2022-12-25T01:40:44.003Z,0.13
2022-12-25T01:40:54.960Z,0.14
2022-12-25T01:41:05.952Z,0.14
2022-12-25T01:41:16.950Z,0.15
2022-12-25T01:41:27.959Z,0.15
2022-12-25T01:41:38.959Z,0.18
2022-12-25T01:41:49.952Z,0.15
2022-12-25T01:42:00.959Z,0.18
2022-12-25T01:42:11.952Z,0.20
2022-12-25T01:42:22.953Z,0.21
2022-12-25T01:42:33.962Z,0.21
2022-12-25T01:42:44.948Z,0.21
2022-12-25T01:42:55.968Z,0.21
2022-12-25T01:43:06.955Z,0.26
2022-12-25T01:43:18.831Z,0.24
2022-12-25T01:43:28.961Z,0.24
2022-12-25T01:43:39.947Z,0.24
2022-12-25T01:43:50.952Z,0.26
2022-12-25T01:44:01.949Z,0.28
2022-12-25T01:44:12.951Z,0.26
2022-12-25T01:44:23.957Z,0.26
2022-12-25T01:44:34.951Z,0.26
2022-12-25T01:44:45.949Z,0.26
2022-12-25T01:44:56.985Z,0.29
2022-12-25T01:45:07.944Z,0.29
2022-12-25T01:45:18.957Z,0.31
2022-12-25T01:45:29.996Z,0.29
2022-12-25T01:45:41.040Z,0.29
2022-12-25T01:45:52.008Z,0.31
2022-12-25T01:46:02.970Z,0.31
2022-12-25T01:46:14.025Z,0.32
2022-12-25T01:46:25.052Z,0.31
2022-12-25T01:46:35.954Z,0.35
2022-12-25T01:46:46.951Z,0.35
2022-12-25T01:46:57.950Z,0.36
2022-12-25T01:47:08.953Z,0.35
2022-12-25T01:47:19.954Z,0.36
2022-12-25T01:47:30.975Z,0.36
2022-12-25T01:47:41.962Z,0.38
2022-12-25T01:47:52.956Z,0.38
2022-12-25T01:48:03.963Z,0.39
2022-12-25T01:48:14.962Z,0.39
2022-12-25T01:48:25.959Z,0.41
2022-12-25T01:48:36.962Z,0.42
2022-12-25T01:48:47.969Z,0.42
2022-12-25T01:48:58.993Z,0.44
2022-12-25T01:49:09.959Z,0.44
2022-12-25T01:49:21.003Z,0.46
2022-12-25T01:49:31.981Z,0.46
2022-12-25T01:49:42.969Z,0.49
2022-12-25T01:49:53.970Z,0.50
2022-12-25T01:50:04.968Z,0.51
2022-12-25T01:50:15.981Z,0.51
2022-12-25T01:50:26.980Z,0.53
2022-12-25T01:50:37.964Z,0.55
2022-12-25T01:50:49.002Z,0.58
2022-12-25T01:50:59.980Z,0.58
2022-12-25T01:51:10.973Z,0.61
2022-12-25T01:51:21.995Z,0.62
2022-12-25T01:51:32.969Z,0.62
2022-12-25T01:51:43.973Z,0.66
2022-12-25T01:51:55.007Z,0.66
2022-12-25T01:52:05.980Z,0.66
2022-12-25T01:52:21.762Z,0.68
2022-12-25T01:52:28.976Z,0.70
2022-12-25T01:52:38.978Z,0.72
2022-12-25T01:52:49.989Z,0.72
2022-12-25T01:53:01.014Z,0.73
2022-12-25T01:53:12.009Z,0.75
2022-12-25T01:53:22.979Z,0.75
2022-12-25T01:53:33.970Z,0.78
2022-12-25T01:53:44.979Z,0.76
2022-12-25T01:53:55.984Z,0.78
2022-12-25T01:54:06.988Z,0.79
2022-12-25T01:54:17.968Z,0.83
2022-12-25T01:54:29.019Z,0.83
2022-12-25T01:54:39.982Z,0.84
2022-12-25T01:54:50.976Z,0.84
2022-12-25T01:55:01.972Z,0.84
2022-12-25T01:55:12.976Z,0.84
2022-12-25T01:55:23.972Z,0.86
2022-12-25T01:55:34.980Z,0.88
2022-12-25T01:55:45.977Z,0.88
2022-12-25T01:55:56.983Z,0.90
2022-12-25T01:56:07.983Z,0.90
2022-12-25T01:56:18.975Z,0.91
2022-12-25T01:56:29.979Z,0.93
2022-12-25T01:56:41.016Z,0.93
2022-12-25T01:56:51.972Z,0.94
2022-12-25T01:57:02.984Z,0.96
2022-12-25T01:57:13.974Z,0.94
2022-12-25T01:57:24.973Z,0.96
2022-12-25T01:57:35.974Z,0.96
2022-12-25T01:57:46.994Z,0.96
2022-12-25T01:57:57.984Z,0.98
2022-12-25T01:58:08.979Z,1.00
2022-12-25T01:58:19.972Z,1.00
2022-12-25T01:58:30.987Z,0.98
2022-12-25T01:58:41.979Z,1.02
2022-12-25T01:58:52.981Z,1.02
2022-12-25T01:59:03.982Z,1.04
2022-12-25T01:59:14.984Z,1.02
2022-12-25T01:59:25.985Z,1.04
2022-12-25T01:59:37.000Z,1.05
2022-12-25T01:59:47.978Z,1.06
2022-12-25T01:59:58.984Z,1.06
2022-12-25T02:00:10.003Z,1.09
2022-12-25T02:00:20.989Z,1.06
2022-12-25T02:00:32.038Z,1.11
2022-12-25T02:00:43.023Z,1.09
2022-12-25T02:00:54.026Z,1.09
2022-12-25T02:01:05.026Z,1.11
2022-12-25T02:01:16.088Z,1.11
2022-12-25T02:01:27.204Z,1.12
2022-12-25T02:01:38.087Z,1.12
2022-12-25T02:01:49.114Z,1.11
2022-12-25T02:02:00.175Z,1.14
2022-12-25T02:02:11.115Z,1.14
2022-12-25T02:02:22.103Z,1.16
2022-12-25T02:02:33.241Z,1.16
2022-12-25T02:02:44.104Z,1.16
2022-12-25T02:02:55.168Z,1.18
2022-12-25T02:03:06.174Z,1.20
2022-12-25T02:03:17.141Z,1.23
2022-12-25T02:03:28.083Z,1.23
2022-12-25T02:03:39.015Z,1.23
2022-12-25T02:03:50.014Z,1.23
2022-12-25T02:04:00.996Z,1.24
2022-12-25T02:04:12.009Z,1.26
2022-12-25T02:04:23.003Z,1.27
2022-12-25T02:04:34.005Z,1.27
2022-12-25T02:04:45.004Z,1.26
2022-12-25T02:04:56.001Z,1.26
2022-12-25T02:05:07.024Z,1.26
2022-12-25T02:05:17.994Z,1.29
2022-12-25T02:05:29.007Z,1.26
2022-12-25T02:05:39.996Z,1.27
2022-12-25T02:05:51.000Z,1.27
2022-12-25T02:06:02.000Z,1.27
2022-12-25T02:06:13.011Z,1.29
2022-12-25T02:06:24.021Z,1.26
2022-12-25T02:06:35.020Z,1.27
2022-12-25T02:06:46.017Z,1.29
2022-12-25T02:06:57.034Z,1.27
2022-12-25T02:07:08.020Z,1.29
2022-12-25T02:07:19.028Z,1.29
2022-12-25T02:07:30.051Z,1.27
2022-12-25T02:07:41.036Z,1.30
2022-12-25T02:07:52.061Z,1.29
2022-12-25T02:08:03.036Z,1.29
2022-12-25T02:08:14.088Z,1.29
2022-12-25T02:08:25.048Z,1.27
2022-12-25T02:08:36.048Z,1.29
2022-12-25T02:08:47.049Z,1.29
2022-12-25T02:08:58.068Z,1.29
2022-12-25T02:09:09.055Z,1.29
2022-12-25T02:09:20.061Z,1.30
2022-12-25T02:09:31.061Z,1.29
2022-12-25T02:09:42.064Z,1.30
2022-12-25T02:09:53.083Z,1.30
2022-12-25T02:10:04.073Z,1.32
2022-12-25T02:10:15.061Z,1.32
2022-12-25T02:10:26.085Z,1.30
2022-12-25T02:10:37.072Z,1.32
2022-12-25T02:10:48.073Z,1.32
2022-12-25T02:10:59.069Z,1.32
2022-12-25T02:11:10.081Z,1.33
2022-12-25T02:11:21.082Z,1.33
2022-12-25T02:11:32.094Z,1.32
2022-12-25T02:11:43.083Z,1.33
2022-12-25T02:11:54.093Z,1.33
2022-12-25T02:12:05.103Z,1.33
2022-12-25T02:12:16.094Z,1.36
2022-12-25T02:12:27.125Z,1.32
2022-12-25T02:12:38.150Z,1.34
2022-12-25T02:12:49.117Z,1.36
2022-12-25T02:13:00.157Z,1.34
2022-12-25T02:13:11.115Z,1.37
2022-12-25T02:13:22.144Z,1.36
2022-12-25T02:13:33.117Z,1.37
2022-12-25T02:13:44.132Z,1.36
2022-12-25T02:13:55.128Z,1.41
2022-12-25T02:14:06.128Z,1.37
2022-12-25T02:14:17.129Z,1.37
2022-12-25T02:14:28.121Z,1.40
2022-12-25T02:14:39.121Z,1.40
2022-12-25T02:14:50.131Z,1.42
2022-12-25T02:15:05.227Z,1.42
2022-12-25T02:15:13.133Z,1.42
2022-12-25T02:15:23.130Z,1.44
2022-12-25T02:15:34.135Z,1.42
2022-12-25T02:15:45.124Z,1.45
2022-12-25T02:15:56.134Z,1.47
2022-12-25T02:16:07.191Z,1.44
2022-12-25T02:16:18.170Z,1.48
2022-12-25T02:16:29.230Z,1.47
2022-12-25T02:16:56.724Z,1.50
2022-12-25T02:16:57.941Z,1.51
2022-12-25T02:17:03.221Z,1.50
2022-12-25T02:17:13.231Z,1.50
2022-12-25T02:17:24.244Z,1.50
2022-12-25T02:17:35.137Z,1.54
2022-12-25T02:17:46.133Z,1.52
2022-12-25T02:17:57.135Z,1.54
2022-12-25T02:18:08.131Z,1.58
2022-12-25T02:18:19.139Z,1.58
2022-12-25T02:18:30.144Z,1.59
2022-12-25T02:18:41.130Z,1.59
2022-12-25T02:18:52.133Z,1.60
2022-12-25T02:19:03.142Z,1.62
2022-12-25T02:19:14.146Z,1.62
2022-12-25T02:19:25.142Z,1.62
2022-12-25T02:19:36.137Z,1.63
2022-12-25T02:19:47.148Z,1.65
2022-12-25T02:19:58.144Z,1.63
2022-12-25T02:20:09.150Z,1.68
2022-12-25T02:20:20.148Z,1.66
2022-12-25T02:20:31.149Z,1.68
2022-12-25T02:20:42.154Z,1.66
2022-12-25T02:20:53.157Z,1.69
2022-12-25T02:21:04.168Z,1.68
2022-12-25T02:21:15.198Z,1.69
2022-12-25T02:21:26.170Z,1.72
2022-12-25T02:21:37.175Z,1.76
2022-12-25T02:21:48.179Z,1.76
2022-12-25T02:21:59.194Z,1.76
2022-12-25T02:22:10.178Z,1.76
2022-12-25T02:22:21.180Z,1.77
2022-12-25T02:22:32.183Z,1.80
2022-12-25T02:22:43.185Z,1.79
2022-12-25T02:22:54.188Z,1.80
2022-12-25T02:23:05.185Z,1.84
2022-12-25T02:23:16.208Z,1.83
2022-12-25T02:23:27.199Z,1.86
2022-12-25T02:23:38.202Z,1.87
2022-12-25T02:23:49.204Z,1.87
2022-12-25T02:24:00.203Z,1.88
2022-12-25T02:24:11.211Z,1.90
2022-12-25T02:24:22.204Z,1.90
2022-12-25T02:24:33.210Z,1.93
2022-12-25T02:24:44.208Z,1.91
2022-12-25T02:24:55.207Z,1.98
2022-12-25T02:25:06.209Z,1.98
2022-12-25T02:25:17.213Z,2.00
2022-12-25T02:25:28.221Z,2.03
2022-12-25T02:25:39.216Z,2.02
2022-12-25T02:25:50.239Z,2.05
2022-12-25T02:26:01.251Z,2.05
2022-12-25T02:26:12.237Z,2.06
2022-12-25T02:26:23.227Z,2.07